Data for 03/20/2006

Time Sea-Level Adjusted Pressure Absolute Pressure Temperature Relative Humidity Dew Point   
(mb) (inHg) (mb) (inHg) (C) (F) (%) (C) (F)
00:05 1014 29.94 843 24.89 -6 21.2 89 -7.5 18.5
00:10 1014 29.94 843 24.89 -6.1 21 90 -7.5 18.4
00:15 1014 29.94 843 24.89 -6.1 21 89 -7.7 18.2
00:20 1014 29.94 843 24.89 -6.1 21 89 -7.7 18.1
00:25 1014 29.94 843 24.89 -6.2 20.9 89 -7.8 18
00:30 1014 29.94 843 24.89 -6.1 21 88 -7.7 18.1
00:35 1014 29.94 843 24.89 -6.1 21.1 88 -7.7 18.1
00:40 1014 29.94 843 24.89 -6.1 21 88 -7.8 17.9
00:45 1014 29.94 843 24.89 -6.1 21 87 -7.9 17.7
00:50 1014 29.94 843 24.89 -6.1 20.9 87 -7.9 17.7
00:55 1014 29.94 843 24.89 -6.1 21 88 -7.9 17.8
01:00 1014 29.94 843 24.89 -6.2 20.8 88 -7.9 17.7
01:05 1014 29.94 843 24.89 -6.2 20.8 88 -7.9 17.7
01:10 1014 29.94 843 24.89 -6.2 20.9 87 -8 17.6
01:15 1013 29.91 843 24.89 -6.1 21 86 -8 17.6
01:20 1013 29.91 843 24.89 -6.1 21.1 87 -7.9 17.8
01:25 1013 29.91 843 24.89 -6.1 21 86 -8.1 17.5
01:30 1013 29.91 843 24.89 -6 21.1 86 -8 17.6
01:35 1013 29.91 843 24.89 -6.1 21.1 86 -8.1 17.5
01:40 1013 29.91 843 24.89 -6.1 21 86 -8.1 17.5
01:45 1013 29.91 843 24.89 -6.1 21 86 -8.1 17.5
01:50 1013 29.91 843 24.89 -6.1 21 86 -8.1 17.4
01:55 1013 29.91 843 24.89 -6.1 21 87 -8 17.6
02:00 1013 29.91 843 24.89 -6.2 20.9 86 -8.1 17.5
02:05 1013 29.91 843 24.89 -6.1 20.9 86 -8.1 17.4
02:10 1013 29.91 842 24.86 -6.1 20.9 86 -8.1 17.3
02:15 1013 29.91 842 24.86 -6.2 20.8 87 -8 17.6
02:20 1013 29.91 842 24.86 -6.3 20.7 88 -8 17.5
02:25 1013 29.91 842 24.86 -6.4 20.5 88 -8 17.6
02:30 1013 29.91 842 24.86 -6.4 20.5 89 -8 17.7
02:35 1013 29.91 842 24.86 -6.4 20.5 89 -8 17.6
02:40 1013 29.91 842 24.86 -6.5 20.4 89 -8 17.6
02:45 1013 29.91 842 24.86 -6.4 20.4 89 -8 17.5
02:50 1013 29.91 842 24.86 -6.5 20.4 89 -8 17.5
02:55 1013 29.91 842 24.86 -6.5 20.3 89 -8 17.6
03:00 1013 29.91 842 24.86 -6.5 20.3 90 -7.9 17.7
03:05 1013 29.91 842 24.86 -6.6 20.2 90 -7.9 17.7
03:10 1013 29.91 842 24.86 -6.6 20.1 90 -8 17.7
03:15 1013 29.91 842 24.86 -6.6 20.2 89 -8.1 17.5
03:20 1013 29.91 842 24.86 -6.6 20.1 89 -8.2 17.3
03:25 1013 29.91 842 24.86 -6.5 20.3 88 -8.1 17.4
03:30 1013 29.91 842 24.86 -6.6 20.1 89 -8.1 17.4
03:35 1013 29.91 842 24.86 -6.6 20.1 90 -8 17.5
03:40 1013 29.91 842 24.86 -6.6 20.1 90 -8 17.6
03:45 1013 29.91 842 24.86 -6.7 19.9 91 -8 17.6
03:50 1013 29.91 842 24.86 -6.8 19.8 91 -8 17.6
03:55 1013 29.91 842 24.86 -6.8 19.8 91 -8 17.5
04:00 1013 29.91 842 24.86 -6.8 19.7 92 -8 17.7
04:05 1013 29.91 842 24.86 -6.8 19.7 92 -8 17.7
04:10 1013 29.91 842 24.86 -6.8 19.7 92 -7.9 17.7
04:15 1013 29.91 842 24.86 -6.9 19.6 92 -8 17.7
04:20 1013 29.91 842 24.86 -6.9 19.5 92 -8 17.7
04:25 1013 29.91 842 24.86 -6.9 19.5 92 -8 17.6
04:30 1013 29.91 842 24.86 -6.9 19.5 92 -8 17.6
04:35 1013 29.91 842 24.86 -6.9 19.6 92 -8 17.6
04:40 1013 29.91 842 24.86 -6.9 19.6 92 -8 17.6
04:45 1013 29.91 842 24.86 -6.9 19.6 92 -8 17.5
04:50 1013 29.91 842 24.86 -6.8 19.7 91 -8 17.5
04:55 1013 29.91 842 24.86 -6.8 19.7 92 -8 17.6
05:00 1013 29.91 842 24.86 -6.8 19.8 92 -7.9 17.7
05:05 1013 29.91 842 24.86 -6.9 19.6 91 -8.1 17.5
05:10 1013 29.91 842 24.86 -6.9 19.5 91 -8.2 17.3
05:15 1013 29.91 842 24.86 -6.9 19.6 91 -8.1 17.4
05:20 1013 29.91 842 24.86 -6.9 19.6 91 -8.1 17.4
05:25 1013 29.91 842 24.86 -6.9 19.5 91 -8.1 17.4
05:30 1013 29.91 842 24.86 -6.9 19.5 91 -8.1 17.4
05:35 1013 29.91 842 24.86 -7 19.5 91 -8.1 17.4
05:40 1013 29.91 842 24.86 -7 19.4 92 -8.2 17.3
05:45 1013 29.91 842 24.86 -7 19.4 92 -8.2 17.3
05:50 1013 29.91 842 24.86 -7 19.4 91 -8.2 17.3
05:55 1013 29.91 842 24.86 -7 19.4 92 -8.2 17.3
06:00 1013 29.91 842 24.86 -7 19.4 91 -8.2 17.3
06:05 1013 29.91 842 24.86 -7 19.4 91 -8.2 17.2
06:10 1013 29.91 842 24.86 -7 19.4 91 -8.3 17.1
06:15 1013 29.91 842 24.86 -7 19.5 90 -8.3 17
06:20 1013 29.91 842 24.86 -7 19.4 90 -8.4 16.9
06:25 1013 29.91 842 24.86 -6.9 19.5 90 -8.3 17.1
06:30 1013 29.91 842 24.86 -7 19.3 90 -8.4 16.9
06:35 1013 29.91 842 24.86 -7 19.4 90 -8.3 17
06:40 1013 29.91 842 24.86 -7 19.4 90 -8.4 17
06:45 1013 29.91 842 24.86 -7.1 19.3 90 -8.4 16.8
06:50 1013 29.91 842 24.86 -7 19.4 90 -8.3 17
06:55 1013 29.91 842 24.86 -7 19.3 90 -8.4 16.9
07:00 1013 29.91 842 24.86 -7 19.4 90 -8.3 17
07:05 1013 29.91 842 24.86 -7 19.4 90 -8.3 17
07:10 1012 29.88 842 24.86 -7 19.4 90 -8.4 16.8
07:15 1012 29.88 842 24.86 -7 19.4 89 -8.5 16.8
07:20 1012 29.88 842 24.86 -7 19.5 89 -8.5 16.8
07:25 1012 29.88 842 24.86 -7 19.5 89 -8.5 16.7
07:30 1012 29.88 842 24.86 -6.9 19.6 88 -8.5 16.7
07:35 1013 29.91 842 24.86 -6.8 19.7 88 -8.5 16.7
07:40 1013 29.91 842 24.86 -6.8 19.7 88 -8.5 16.7
07:45 1012 29.88 842 24.86 -6.8 19.8 88 -8.5 16.7
07:50 1012 29.88 842 24.86 -6.7 19.9 87 -8.5 16.8
07:55 1013 29.91 842 24.86 -6.6 20.1 87 -8.4 16.8
08:00 1013 29.91 842 24.86 -6.6 20.1 86 -8.5 16.6
08:05 1013 29.91 842 24.86 -6.6 20.2 86 -8.5 16.7
08:10 1013 29.91 842 24.86 -6.5 20.3 86 -8.5 16.8
08:15 1013 29.91 842 24.86 -6.4 20.4 85 -8.5 16.7
08:20 1013 29.91 842 24.86 -6.5 20.3 86 -8.5 16.6
08:25 1013 29.91 842 24.86 -6.5 20.4 86 -8.5 16.7
08:30 1013 29.91 842 24.86 -6.5 20.3 86 -8.5 16.7
08:35 1013 29.91 842 24.86 -6.4 20.5 85 -8.6 16.6
08:40 1013 29.91 842 24.86 -6.3 20.7 85 -8.5 16.8
08:45 1013 29.91 842 24.86 -6.2 20.8 85 -8.3 17
08:50 1013 29.91 842 24.86 -6.3 20.6 85 -8.4 16.8
08:55 1013 29.91 842 24.86 -6.3 20.7 85 -8.4 16.9
09:00 1013 29.91 842 24.86 -6.2 20.8 85 -8.4 16.9
09:05 1013 29.91 842 24.86 -6.2 20.9 85 -8.4 16.9
09:10 1013 29.91 842 24.86 -6 21.2 84 -8.2 17.2
09:15 1013 29.91 842 24.86 -6.1 21.1 84 -8.4 16.9
09:20 1013 29.91 842 24.86 -5.9 21.3 83 -8.4 16.9
09:25 1013 29.91 842 24.86 -5.8 21.6 82 -8.4 16.8
09:30 1013 29.91 842 24.86 -5.8 21.5 81 -8.6 16.6
09:35 1013 29.91 842 24.86 -5.7 21.8 82 -8.3 17
09:40 1013 29.91 842 24.86 -5.6 21.9 81 -8.5 16.8
09:45 1013 29.91 842 24.86 -5.6 21.9 80 -8.5 16.6
09:50 1013 29.91 842 24.86 -5.6 22 80 -8.5 16.7
09:55 1013 29.91 842 24.86 -5.4 22.2 80 -8.4 16.9
10:00 1013 29.91 842 24.86 -5.2 22.6 79 -8.4 16.9
10:05 1013 29.91 842 24.86 -4.9 23.2 77 -8.4 16.9
10:10 1013 29.91 842 24.86 -4.5 23.9 74 -8.4 17
10:15 1013 29.91 842 24.86 -4.5 23.9 75 -8.2 17.2
10:20 1013 29.91 842 24.86 -4.4 24.1 75 -8.2 17.2
10:25 1013 29.91 842 24.86 -4.3 24.2 75 -8.1 17.4
10:30 1013 29.91 842 24.86 -4.1 24.6 73 -8.2 17.2
10:35 1012 29.88 842 24.86 -4.1 24.7 72 -8.4 16.9
10:40 1012 29.88 842 24.86 -4.1 24.7 73 -8.2 17.2
10:45 1012 29.88 842 24.86 -3.8 25.1 71 -8.2 17.2
10:50 1012 29.88 842 24.86 -3.4 25.9 75 -7.3 18.9
10:55 1012 29.88 842 24.86 -3.7 25.4 77 -7.2 19.1
11:00 1012 29.88 842 24.86 -3.9 25 78 -7.2 19
11:05 1012 29.88 842 24.86 -4 24.8 79 -7.1 19.3
11:10 1012 29.88 842 24.86 -3.1 26.3 75 -7 19.4
11:15 1012 29.88 842 24.86 -3.1 26.4 77 -6.6 20
11:20 1012 29.88 841 24.83 -3.3 26 77 -6.9 19.6
11:25 1012 29.88 841 24.83 -3.2 26.3 76 -6.8 19.8
11:30 1012 29.88 841 24.83 -3.3 26 75 -7.2 19
11:35 1012 29.88 841 24.83 -2.5 27.6 70 -7.2 19.1
11:40 1012 29.88 841 24.83 -2.9 26.7 74 -7 19.5
11:45 1012 29.88 841 24.83 -3 26.6 74 -7 19.4
11:50 1012 29.88 841 24.83 -2.5 27.6 73 -6.6 20.1
11:55 1012 29.88 841 24.83 -2.3 27.8 72 -6.7 20
12:00 1012 29.88 841 24.83 -2.3 27.9 68 -7.4 18.7
12:05 1012 29.88 841 24.83 -2.2 28 66 -7.7 18.2
12:10 1012 29.88 841 24.83 -1.9 28.5 66 -7.5 18.4
12:15 1012 29.88 841 24.83 -2 28.4 67 -7.3 18.8
12:20 1012 29.88 841 24.83 -1.3 29.6 69 -6.2 20.8
12:25 1012 29.88 841 24.83 -0.7 30.7 66 -6.4 20.5
12:30 1012 29.88 841 24.83 -1.7 29 65 -7.3 18.8
12:35 1012 29.88 841 24.83 -1.9 28.7 68 -7 19.3
12:40 1012 29.88 841 24.83 -1.6 29.1 68 -6.7 20
12:45 1011 29.85 841 24.83 -2.2 28.1 71 -6.8 19.7
12:50 1011 29.85 841 24.83 -1.5 29.3 68 -6.6 20
12:55 1011 29.85 841 24.83 -1.6 29.1 66 -7.2 19
13:00 1011 29.85 841 24.83 -2 28.4 69 -7 19.4
13:05 1011 29.85 840 24.81 -2.3 27.9 72 -6.6 20
13:10 1011 29.85 840 24.81 -1.9 28.6 66 -7.4 18.7
13:15 1011 29.85 840 24.81 -1.7 28.9 68 -6.9 19.6
13:20 1011 29.85 840 24.81 -1.9 28.6 69 -6.8 19.8
13:25 1011 29.85 840 24.81 -1.3 29.7 64 -7.2 19.1
13:30 1011 29.85 840 24.81 -1.4 29.5 66 -7 19.5
13:35 1011 29.85 840 24.81 -1.6 29.2 67 -7 19.5
13:40 1011 29.85 840 24.81 -1.3 29.6 67 -6.8 19.8
13:45 1011 29.85 840 24.81 -1 30.2 65 -6.7 19.9
13:50 1011 29.85 840 24.81 -0.8 30.5 68 -6.1 21.1
13:55 1011 29.85 840 24.81 -0.6 30.9 65 -6.4 20.5
14:00 1011 29.85 840 24.81 -0.9 30.4 65 -6.7 20
14:05 1011 29.85 840 24.81 -1.7 29 68 -6.8 19.7
14:10 1011 29.85 840 24.81 -1.6 29.2 67 -6.8 19.7
14:15 1011 29.85 840 24.81 -1.9 28.6 67 -7.2 19.1
14:20 1011 29.85 840 24.81 -1.7 28.9 68 -6.8 19.7
14:25 1011 29.85 840 24.81 -1.5 29.3 67 -7 19.5
14:30 1011 29.85 840 24.81 -1.5 29.3 66 -7 19.3
14:35 1011 29.85 840 24.81 -1.4 29.5 66 -6.9 19.6
14:40 1011 29.85 840 24.81 -1.6 29.2 68 -6.8 19.7
14:45 1011 29.85 840 24.81 -1.7 28.9 68 -6.9 19.6
14:50 1011 29.85 840 24.81 -1.9 28.6 69 -6.9 19.5
14:55 1011 29.85 840 24.81 -1.8 28.8 69 -6.7 20
15:00 1011 29.85 840 24.81 -1.3 29.7 66 -6.8 19.8
15:05 1011 29.85 840 24.81 -1.8 28.7 69 -6.7 19.9
15:10 1011 29.85 840 24.81 -1.9 28.5 69 -7 19.5
15:15 1011 29.85 840 24.81 -2.1 28.2 70 -6.8 19.7
15:20 1011 29.85 840 24.81 -1.9 28.6 71 -6.5 20.3
15:25 1011 29.85 840 24.81 -2.3 27.8 73 -6.6 20.1
15:30 1011 29.85 840 24.81 -2.3 27.8 73 -6.6 20.1
15:35 1011 29.85 840 24.81 -2.6 27.4 75 -6.5 20.4
15:40 1011 29.85 840 24.81 -2.9 26.8 75 -6.7 20
15:45 1011 29.85 840 24.81 -3 26.6 75 -6.8 19.7
15:50 1011 29.85 840 24.81 -3.2 26.3 77 -6.7 20
15:55 1011 29.85 840 24.81 -3.4 25.9 76 -7.1 19.2
16:00 1011 29.85 840 24.81 -3.2 26.2 74 -7.2 19
16:05 1011 29.85 840 24.81 -3.4 25.9 75 -7.2 19.1
16:10 1010 29.83 840 24.81 -3.6 25.4 77 -7.2 19.1
16:15 1011 29.85 840 24.81 -3.9 25.1 77 -7.3 18.9
16:20 1010 29.83 840 24.81 -4 24.8 78 -7.3 18.8
16:25 1010 29.83 840 24.81 -4 24.8 79 -7.2 19.1
16:30 1010 29.83 840 24.81 -4.1 24.7 79 -7.2 19.1
16:35 1010 29.83 840 24.81 -4 24.7 79 -7.2 19.1
16:40 1010 29.83 840 24.81 -4.1 24.6 80 -7.1 19.2
16:45 1010 29.83 840 24.81 -4.1 24.6 80 -7 19.3
16:50 1010 29.83 840 24.81 -4.2 24.5 81 -7 19.3
16:55 1010 29.83 840 24.81 -4.2 24.4 80 -7.1 19.2
17:00 1010 29.83 840 24.81 -4.4 24.2 81 -7.1 19.2
17:05 1011 29.85 840 24.81 -4.4 24.2 81 -7.2 19
17:10 1010 29.83 840 24.81 -4.4 24.1 81 -7.2 19.1
17:15 1010 29.83 840 24.81 -4.4 24 81 -7.2 19.1
17:20 1010 29.83 840 24.81 -4.5 24 81 -7.3 18.9
17:25 1011 29.85 840 24.81 -4.5 23.8 81 -7.3 18.9
17:30 1010 29.83 840 24.81 -4.6 23.8 82 -7.3 18.9
17:35 1010 29.83 840 24.81 -4.6 23.8 80 -7.4 18.6
17:40 1010 29.83 840 24.81 -4.6 23.8 80 -7.5 18.6
17:45 1010 29.83 840 24.81 -4.6 23.7 80 -7.6 18.4
17:50 1010 29.83 840 24.81 -4.6 23.7 79 -7.7 18.2
17:55 1010 29.83 840 24.81 -4.6 23.7 78 -7.8 18
18:00 1010 29.83 840 24.81 -4.7 23.6 79 -7.7 18.1
18:05 1011 29.85 840 24.81 -4.7 23.6 79 -7.8 18
18:10 1011 29.85 840 24.81 -4.7 23.6 78 -7.9 17.8
18:15 1010 29.83 840 24.81 -4.7 23.5 78 -8 17.6
18:20 1011 29.85 840 24.81 -4.8 23.4 78 -8 17.6
18:25 1011 29.85 840 24.81 -4.8 23.3 78 -8 17.5
18:30 1011 29.85 840 24.81 -4.9 23.2 78 -8.1 17.4
18:35 1011 29.85 840 24.81 -4.9 23.2 78 -8.1 17.4
18:40 1010 29.83 840 24.81 -5 22.9 78 -8.2 17.2
18:45 1010 29.83 840 24.81 -5.1 22.9 79 -8.1 17.4
18:50 1011 29.85 840 24.81 -5.1 22.7 80 -8 17.6
18:55 1011 29.85 840 24.81 -5.2 22.6 80 -8.1 17.5
19:00 1011 29.85 840 24.81 -5.3 22.5 80 -8.2 17.3
19:05 1011 29.85 840 24.81 -5.2 22.6 81 -8.1 17.5
19:10 1011 29.85 840 24.81 -5.3 22.4 81 -8.1 17.4
19:15 1011 29.85 840 24.81 -5.4 22.4 81 -8.1 17.5
19:20 1011 29.85 840 24.81 -5.4 22.3 81 -8.1 17.4
19:25 1011 29.85 840 24.81 -5.4 22.3 81 -8.1 17.4
19:30 1011 29.85 840 24.81 -5.4 22.3 81 -8.1 17.5
19:35 1011 29.85 840 24.81 -5.4 22.2 81 -8.1 17.3
19:40 1010 29.83 840 24.81 -5.4 22.2 81 -8.1 17.4
19:45 1010 29.83 840 24.81 -5.5 22.2 82 -8 17.6
19:50 1010 29.83 840 24.81 -5.5 22.1 82 -8 17.5
19:55 1010 29.83 840 24.81 -5.5 22.1 82 -8.1 17.5
20:00 1010 29.83 840 24.81 -5.5 22.2 82 -8 17.6
20:05 1011 29.85 840 24.81 -5.5 22.1 82 -8.1 17.4
20:10 1011 29.85 840 24.81 -5.4 22.2 82 -8 17.6
20:15 1011 29.85 840 24.81 -5.4 22.2 82 -8.1 17.4
20:20 1011 29.85 840 24.81 -5.4 22.2 82 -8.1 17.4
20:25 1011 29.85 840 24.81 -5.4 22.3 81 -8.1 17.4
20:30 1011 29.85 840 24.81 -5.4 22.3 82 -8 17.5
20:35 1011 29.85 840 24.81 -5.5 22.1 82 -8 17.5
20:40 1011 29.85 840 24.81 -5.5 22.1 82 -8.1 17.4
20:45 1011 29.85 840 24.81 -5.4 22.2 81 -8.2 17.3
20:50 1011 29.85 840 24.81 -5.4 22.2 81 -8.2 17.2
20:55 1011 29.85 840 24.81 -5.4 22.4 80 -8.2 17.2
21:00 1011 29.85 840 24.81 -5.4 22.3 80 -8.3 17.1
21:05 1011 29.85 840 24.81 -5.4 22.3 80 -8.3 17
21:10 1011 29.85 840 24.81 -5.4 22.3 80 -8.3 17.1
21:15 1011 29.85 840 24.81 -5.3 22.4 80 -8.2 17.2
21:20 1011 29.85 840 24.81 -5.5 22.2 81 -8.3 17.1
21:25 1011 29.85 840 24.81 -5.4 22.3 80 -8.4 16.9
21:30 1011 29.85 840 24.81 -5.4 22.3 80 -8.4 17
21:35 1011 29.85 840 24.81 -5.3 22.4 79 -8.4 16.9
21:40 1011 29.85 840 24.81 -5.4 22.3 80 -8.3 17
21:45 1011 29.85 840 24.81 -5.4 22.2 81 -8.2 17.2
21:50 1011 29.85 840 24.81 -5.4 22.3 81 -8.2 17.2
21:55 1011 29.85 840 24.81 -5.4 22.3 80 -8.3 17
22:00 1011 29.85 840 24.81 -5.4 22.3 80 -8.3 17
22:05 1011 29.85 840 24.81 -5.4 22.2 80 -8.4 17
22:10 1011 29.85 840 24.81 -5.5 22.1 81 -8.3 17
22:15 1011 29.85 840 24.81 -5.5 22.1 81 -8.2 17.2
22:20 1011 29.85 840 24.81 -5.5 22.1 82 -8.1 17.4
22:25 1011 29.85 840 24.81 -5.6 22 82 -8.2 17.3
22:30 1011 29.85 840 24.81 -5.5 22.1 82 -8.2 17.3
22:35 1011 29.85 840 24.81 -5.5 22.1 82 -8.2 17.3
22:40 1011 29.85 840 24.81 -5.5 22 82 -8.1 17.4
22:45 1011 29.85 840 24.81 -5.6 22 82 -8.2 17.3
22:50 1011 29.85 840 24.81 -5.6 22 82 -8.2 17.3
22:55 1011 29.85 840 24.81 -5.6 22 82 -8.1 17.3
23:00 1011 29.85 840 24.81 -5.7 21.8 82 -8.2 17.2
23:05 1011 29.85 840 24.81 -5.6 22 82 -8.1 17.3
23:10 1011 29.85 840 24.81 -5.7 21.8 82 -8.2 17.2
23:15 1011 29.85 840 24.81 -5.6 21.8 83 -8.1 17.4
23:20 1011 29.85 840 24.81 -5.7 21.8 83 -8.1 17.4
23:25 1011 29.85 840 24.81 -5.8 21.6 84 -8.1 17.3
23:30 1011 29.85 840 24.81 -5.8 21.5 84 -8.1 17.4
23:35 1011 29.85 840 24.81 -5.8 21.6 84 -8.1 17.4
23:40 1011 29.85 840 24.81 -5.8 21.6 83 -8.2 17.3
23:45 1011 29.85 840 24.81 -5.8 21.6 83 -8.2 17.2
23:50 1011 29.85 840 24.81 -5.7 21.7 83 -8.2 17.3
23:55 1011 29.85 840 24.81 -5.8 21.6 83 -8.2 17.3
24:00 1011 29.85 840 24.81 -5.9 21.5 84 -8.1 17.4